Time;durP1;ratioP1;P1;durP2;ratioP2;P2;SDS_P1;SDS_P2;PMS_P1;PMS_P2;Temp;Humidity;BMP_temperature;BMP_pressure;BME280_temperature;BME280_humidity;BME280_pressure;Samples;Min_cycle;Max_cycle;Signal;HPM_P1;HPM_P2
2022/01/13 00:02:32;;;;;;;1.50;1.40;;;;;;;-17.33;75.53;99638.53;5036133;28;20048;-85
2022/01/13 00:04:59;;;;;;;1.27;1.20;;;;;;;-17.39;75.45;99633.56;5052488;28;20057;-83
2022/01/13 00:07:26;;;;;;;1.33;1.23;;;;;;;-17.41;75.50;99627.66;5052021;28;20045;-84
2022/01/13 00:09:53;;;;;;;1.10;1.10;;;;;;;-17.40;75.63;99627.56;5051260;28;20499;-83
2022/01/13 00:12:23;;;;;;;1.50;1.40;;;;;;;-17.44;75.87;99619.97;5051415;28;20048;-84
2022/01/13 00:25:55;;;;;;;1.13;1.13;;;;;;;-17.38;76.21;99620.63;5035610;28;20060;-84
2022/01/13 00:28:25;;;;;;;1.55;1.45;;;;;;;-17.40;76.30;99604.34;5057299;28;20053;-85
2022/01/13 00:30:55;;;;;;;1.45;1.35;;;;;;;-17.43;76.21;99611.38;5048978;28;20123;-85
2022/01/13 00:33:24;;;;;;;1.10;1.10;;;;;;;-17.47;75.97;99597.72;5052758;28;20053;-85
2022/01/13 00:35:53;;;;;;;1.10;1.10;;;;;;;-17.52;76.16;99591.88;5054546;28;20628;-84
2022/01/13 00:38:21;;;;;;;1.23;1.20;;;;;;;-17.57;76.43;99592.06;5048112;28;20049;-84
2022/01/13 00:40:48;;;;;;;1.40;1.30;;;;;;;-17.50;76.63;99593.50;5037492;28;20048;-85
2022/01/13 00:43:16;;;;;;;1.30;1.20;;;;;;;-17.42;76.59;99574.34;5052358;28;20089;-84
2022/01/13 00:45:43;;;;;;;1.52;1.42;;;;;;;-17.45;76.20;99571.88;5030151;28;20048;-85
2022/01/13 00:48:16;;;;;;;1.10;1.10;;;;;;;-17.51;76.20;99565.22;5052001;28;20067;-84
2022/01/13 00:50:43;;;;;;;1.50;1.40;;;;;;;-17.68;75.71;99552.91;5056408;28;20052;-84
2022/01/13 00:53:10;;;;;;;1.15;1.15;;;;;;;-17.71;75.52;99553.00;5062968;28;20049;-83
2022/01/13 00:55:58;;;;;;;1.20;1.20;;;;;;;-17.83;75.41;99548.31;5050222;28;20594;-83
2022/01/13 00:58:27;;;;;;;1.52;1.42;;;;;;;-17.78;75.55;99536.06;5035758;28;20049;-85
2022/01/13 01:00:55;;;;;;;1.10;1.10;;;;;;;-17.86;75.40;99522.66;5056361;28;20045;-86
2022/01/13 01:03:23;;;;;;;1.23;1.17;;;;;;;-17.92;75.59;99515.97;5026214;28;20405;-86
2022/01/13 01:05:53;;;;;;;1.13;1.13;;;;;;;-18.00;75.73;99495.63;5033480;28;20080;-85
2022/01/13 01:08:22;;;;;;;1.15;1.13;;;;;;;-17.99;75.79;99499.03;5040818;28;20087;-85
2022/01/13 01:10:52;;;;;;;1.50;1.40;;;;;;;-17.96;76.00;99510.06;5051178;28;20044;-84
2022/01/13 01:13:25;;;;;;;1.40;1.30;;;;;;;-18.00;75.82;99521.41;5047617;28;20083;-84
2022/01/13 01:15:55;;;;;;;1.10;1.10;;;;;;;-18.02;75.95;99518.03;5050961;28;20458;-85
2022/01/13 01:26:27;;;;;;;1.50;1.40;;;;;;;-18.51;76.64;99499.03;5048664;28;20056;-86
2022/01/13 01:29:07;;;;;;;1.48;1.38;;;;;;;-18.52;76.76;99486.25;5047748;28;20068;-84
2022/01/13 01:31:37;;;;;;;1.60;1.50;;;;;;;-18.50;77.01;99482.72;5049227;28;20076;-85
2022/01/13 01:36:37;;;;;;;1.30;1.20;;;;;;;-18.45;77.12;99467.94;5050952;28;20466;-84
2022/01/13 01:39:06;;;;;;;1.40;1.30;;;;;;;-18.43;77.09;99471.31;5036925;28;20114;-84
2022/01/13 01:41:39;;;;;;;1.27;1.20;;;;;;;-18.38;77.28;99474.59;5050775;28;20107;-85
2022/01/13 01:44:08;;;;;;;1.45;1.35;;;;;;;-18.33;77.27;99473.56;5050567;28;20045;-85
2022/01/13 01:46:38;;;;;;;1.40;1.30;;;;;;;-18.27;77.27;99471.63;5047117;28;20049;-84
2022/01/13 01:49:15;;;;;;;1.63;1.52;;;;;;;-18.21;77.25;99480.88;5050923;28;20052;-84
2022/01/13 01:51:50;;;;;;;1.40;1.30;;;;;;;-18.23;76.86;99477.50;5050792;28;20081;-84
2022/01/13 01:54:17;;;;;;;1.40;1.30;;;;;;;-18.38;76.34;99481.44;5050354;28;20052;-85
2022/01/13 01:56:45;;;;;;;1.17;1.17;;;;;;;-18.62;76.13;99470.25;5032925;28;20499;-85
2022/01/13 01:59:16;;;;;;;1.25;1.20;;;;;;;-18.68;76.01;99480.72;5050575;28;20053;-85
2022/01/13 02:01:44;;;;;;;1.40;1.30;;;;;;;-18.69;75.91;99476.47;5020874;28;20063;-85
2022/01/13 02:04:12;;;;;;;1.48;1.38;;;;;;;-18.69;75.41;99476.47;5054798;28;20143;-85
2022/01/13 02:06:40;;;;;;;1.40;1.30;;;;;;;-18.77;75.90;99478.50;5054694;28;20103;-85
2022/01/13 02:09:09;;;;;;;1.42;1.33;;;;;;;-18.89;75.61;99472.00;5054189;28;20088;-85
2022/01/13 02:11:43;;;;;;;1.30;1.20;;;;;;;-18.97;75.96;99467.09;5053148;28;20053;-86
2022/01/13 02:14:32;;;;;;;;;;;;;;;-19.03;76.15;99462.16;5042689;28;20072;-84
2022/01/13 02:17:10;;;;;;;1.40;1.30;;;;;;;-19.02;76.21;99463.84;5052259;28;20414;-84
2022/01/13 02:19:41;;;;;;;1.25;1.17;;;;;;;-19.04;75.85;99457.88;5054349;28;20053;-85
2022/01/13 02:22:09;;;;;;;1.40;1.30;;;;;;;-19.17;75.38;99466.88;5049947;28;20431;-85
2022/01/13 02:24:36;;;;;;;1.27;1.20;;;;;;;-19.36;75.11;99477.75;5057413;28;20040;-85
2022/01/13 02:27:06;;;;;;;1.38;1.27;;;;;;;-19.46;75.25;99466.03;5053650;28;20052;-83
2022/01/13 02:29:34;;;;;;;1.40;1.30;;;;;;;-19.47;75.61;99465.22;5054575;28;20115;-83
2022/01/13 02:32:02;;;;;;;1.52;1.42;;;;;;;-19.51;75.79;99466.19;5035724;28;20507;-83
2022/01/13 02:34:29;;;;;;;1.40;1.30;;;;;;;-19.49;75.90;99466.97;5058640;28;20122;-84
2022/01/13 02:36:57;;;;;;;1.20;1.20;;;;;;;-19.43;76.11;99475.41;5053448;28;20049;-84
2022/01/13 02:39:27;;;;;;;1.50;1.40;;;;;;;-19.46;76.07;99473.75;5054131;28;20048;-85
2022/01/13 02:41:58;;;;;;;1.40;1.30;;;;;;;-19.46;76.01;99472.03;5035896;28;20045;-84
2022/01/13 02:44:26;;;;;;;1.50;1.40;;;;;;;-19.45;76.11;99467.72;5043669;28;20491;-84
2022/01/13 02:47:20;;;;;;;1.40;1.30;;;;;;;-19.51;76.03;99466.19;5053836;28;20059;-84
2022/01/13 02:50:08;;;;;;;1.50;1.40;;;;;;;-19.57;76.02;99468.91;5039293;28;20411;-85
2022/01/13 02:52:35;;;;;;;1.40;1.30;;;;;;;-19.61;76.20;99469.06;5052279;28;20056;-85
2022/01/13 02:55:05;;;;;;;1.25;1.20;;;;;;;-19.62;76.30;99467.38;5035989;28;20095;-85
2022/01/13 02:57:32;;;;;;;1.40;1.30;;;;;;;-19.59;76.30;99470.72;5055163;28;20052;-84
2022/01/13 02:59:59;;;;;;;1.50;1.40;;;;;;;-19.58;76.24;99451.81;5052863;28;20056;-84
2022/01/13 03:02:31;;;;;;;1.30;1.20;;;;;;;-19.43;76.00;99432.53;5053054;28;20485;-85
2022/01/13 03:04:59;;;;;;;1.48;1.38;;;;;;;-19.34;76.01;99428.81;5037018;28;20503;-84
2022/01/13 03:07:30;;;;;;;1.40;1.30;;;;;;;-19.34;75.70;99411.69;5057043;28;20102;-86
2022/01/13 03:09:57;;;;;;;1.33;1.23;;;;;;;-19.45;75.63;99396.56;5052667;28;20400;-85
2022/01/13 03:12:26;;;;;;;1.27;1.20;;;;;;;-19.33;75.97;99387.63;5053741;28;20099;-85
2022/01/13 03:14:56;;;;;;;1.40;1.30;;;;;;;-19.24;75.33;99409.63;5054357;28;20507;-85
2022/01/13 03:17:23;;;;;;;1.40;1.30;;;;;;;-19.51;74.53;99407.03;5034795;28;20106;-84
2022/01/13 03:19:50;;;;;;;1.50;1.40;;;;;;;-19.64;74.38;99417.72;5061477;28;20431;-84
2022/01/13 03:22:17;;;;;;;1.30;1.20;;;;;;;-19.70;74.63;99426.50;5058123;28;20499;-84
2022/01/13 03:24:44;;;;;;;1.58;1.48;;;;;;;-19.81;74.49;99428.56;5053281;28;20045;-85
2022/01/13 03:27:19;;;;;;;1.50;1.40;;;;;;;-19.87;74.65;99429.56;5047687;28;20048;-85
2022/01/13 03:29:46;;;;;;;;;;;;;;;-19.98;74.53;99431.59;5043736;28;20139;-85
2022/01/13 03:32:15;;;;;;;1.40;1.30;;;;;;;-20.09;74.59;99407.94;5042891;28;20043;-85
2022/01/13 03:34:45;;;;;;;1.50;1.40;;;;;;;-20.19;74.87;99395.34;5046018;28;20046;-84
2022/01/13 03:37:12;;;;;;;1.50;1.40;;;;;;;-20.28;75.24;99392.19;5046730;28;20083;-84
2022/01/13 03:39:39;;;;;;;1.40;1.30;;;;;;;-20.38;75.16;99366.78;5013975;28;20519;-83
2022/01/13 03:42:07;;;;;;;1.40;1.30;;;;;;;-20.43;75.12;99370.34;5032803;28;20060;-84
2022/01/13 03:44:34;;;;;;;1.60;1.50;;;;;;;-20.52;75.31;99352.66;5050385;28;20110;-84
2022/01/13 03:47:04;;;;;;;1.60;1.50;;;;;;;-20.62;75.73;99359.78;5050327;28;20173;-84
2022/01/13 03:49:32;;;;;;;1.40;1.30;;;;;;;-20.75;75.63;99343.88;5048433;28;20056;-84
2022/01/13 03:52:03;;;;;;;1.67;1.58;;;;;;;-20.73;76.01;99339.56;5031888;28;20055;-84
2022/01/13 03:54:40;;;;;;;1.92;1.83;;;;;;;-20.73;75.91;99359.22;5049863;28;20519;-84
2022/01/13 03:57:49;;;;;;;1.40;1.30;;;;;;;-20.70;75.33;99343.75;5043204;28;20464;-84
2022/01/13 04:00:50;;;;;;;1.50;1.40;;;;;;;-20.75;75.27;99333.63;5003939;28;20405;-85
2022/01/13 04:03:17;;;;;;;1.40;1.30;;;;;;;-20.82;75.41;99324.41;4999011;28;20267;-84
2022/01/13 04:06:16;;;;;;;1.60;1.50;;;;;;;-20.78;75.56;99331.16;4996832;28;20662;-83
2022/01/13 04:08:47;;;;;;;1.70;1.60;;;;;;;-20.85;75.55;99321.91;5003035;28;20132;-85
2022/01/13 04:11:18;;;;;;;1.50;1.40;;;;;;;-20.93;75.55;99318.72;5002915;28;20051;-84
2022/01/13 04:16:14;;;;;;;1.40;1.30;;;;;;;-20.97;76.24;99315.38;5005126;28;20102;-83
2022/01/13 04:18:41;;;;;;;1.70;1.60;;;;;;;-20.97;76.23;99306.84;5001647;28;20061;-85
2022/01/13 04:21:08;;;;;;;1.40;1.30;;;;;;;-20.99;76.44;99286.38;5005625;28;20081;-84
2022/01/13 04:23:36;;;;;;;1.75;1.65;;;;;;;-21.10;76.40;99294.34;4999411;28;20046;-83
2022/01/13 04:26:07;;;;;;;1.40;1.30;;;;;;;-21.19;76.66;99304.84;5000223;28;20079;-83
2022/01/13 04:28:35;;;;;;;1.40;1.30;;;;;;;-21.21;76.81;99284.38;5003353;28;20125;-82
2022/01/13 04:31:03;;;;;;;1.40;1.30;;;;;;;-21.18;76.76;99269.81;5028635;28;20279;-82
2022/01/13 04:33:33;;;;;;;1.60;1.50;;;;;;;-21.09;76.88;99264.41;5028889;28;20052;-83
2022/01/13 04:36:01;;;;;;;1.67;1.58;;;;;;;-21.23;77.01;99257.94;5011087;28;20050;-82
2022/01/13 04:38:28;;;;;;;1.35;1.25;;;;;;;-21.32;77.08;99258.16;4691074;28;9999713;-81
2022/01/13 04:40:57;;;;;;;1.50;1.40;;;;;;;-21.44;76.85;99276.44;5035498;28;20049;-81
2022/01/13 04:43:26;;;;;;;1.50;1.40;;;;;;;-21.37;76.88;99264.31;5039202;28;20219;-81
2022/01/13 04:45:54;;;;;;;1.42;1.33;;;;;;;-21.24;77.04;99260.53;5044925;28;20049;-83
2022/01/13 04:48:21;;;;;;;1.60;1.50;;;;;;;-21.24;76.78;99275.91;5031175;28;20045;-82
2022/01/13 04:50:48;;;;;;;1.48;1.38;;;;;;;-21.29;76.79;99277.75;5044062;28;20049;-83
2022/01/13 04:53:15;;;;;;;1.50;1.40;;;;;;;-21.28;77.39;99284.59;5042637;28;20069;-82
2022/01/13 04:55:50;;;;;;;1.50;1.40;;;;;;;-21.19;77.52;99284.31;5046539;28;20098;-82
2022/01/13 04:58:18;;;;;;;1.60;1.50;;;;;;;-21.14;77.53;99250.88;5042346;28;20455;-82
2022/01/13 05:00:46;;;;;;;1.38;1.27;;;;;;;-21.09;77.54;99256.72;5053663;28;20102;-81
2022/01/13 05:03:13;;;;;;;1.85;1.65;;;;;;;-21.17;77.76;99243.28;5040419;28;20041;-83
2022/01/13 05:05:40;;;;;;;1.52;1.42;;;;;;;-21.17;78.18;99246.66;5031045;28;20448;-82
2022/01/13 05:08:07;;;;;;;1.50;1.40;;;;;;;-21.17;78.65;99248.41;5042221;28;20053;-81
2022/01/13 05:10:34;;;;;;;1.50;1.40;;;;;;;-21.15;79.33;99255.16;5050179;28;20099;-80
2022/01/13 05:13:04;;;;;;;1.50;1.40;;;;;;;-21.15;79.70;99275.69;5044264;28;20175;-80
2022/01/13 05:15:32;;;;;;;1.50;1.40;;;;;;;-21.14;80.03;99233.75;5040865;28;20049;-81
2022/01/13 05:18:12;;;;;;;1.67;1.58;;;;;;;-21.10;80.66;99211.47;5043242;28;20057;-81
2022/01/13 05:20:48;;;;;;;1.63;1.52;;;;;;;-21.16;81.03;99211.59;5044586;28;20052;-82
2022/01/13 05:23:16;;;;;;;1.52;1.40;;;;;;;-21.14;81.16;99207.28;5043602;28;20568;-81
2022/01/13 05:25:44;;;;;;;1.40;1.30;;;;;;;-21.12;81.38;99210.66;5041286;28;20128;-80
2022/01/13 05:28:11;;;;;;;1.50;1.40;;;;;;;-21.27;81.34;99234.97;5044100;28;20103;-82
2022/01/13 05:30:41;;;;;;;1.55;1.45;;;;;;;-21.20;81.81;99210.88;5051809;28;20072;-86
2022/01/13 05:33:08;;;;;;;1.40;1.30;;;;;;;-21.18;81.75;99198.84;5019532;28;20051;-88
2022/01/13 05:35:38;;;;;;;1.50;1.40;;;;;;;-21.17;81.50;99185.13;5047513;28;20079;-87
2022/01/13 05:38:08;;;;;;;1.40;1.30;;;;;;;-21.27;81.33;99181.97;5031705;28;20069;-85
2022/01/13 05:40:36;;;;;;;1.50;1.40;;;;;;;-21.37;81.15;99169.47;5031844;28;20045;-81
2022/01/13 05:43:06;;;;;;;1.50;1.40;;;;;;;-21.45;81.37;99138.94;5042356;28;20056;-84
2022/01/13 05:45:41;;;;;;;1.42;1.33;;;;;;;-21.37;81.12;99164.34;5046924;28;20049;-85
2022/01/13 05:48:08;;;;;;;1.70;1.60;;;;;;;-21.38;81.20;99155.00;5037453;28;20057;-84
2022/01/13 05:50:38;;;;;;;1.50;1.40;;;;;;;-21.34;81.32;99143.75;5055858;28;20067;-82
2022/01/13 05:53:06;;;;;;;1.50;1.40;;;;;;;-21.31;81.32;99151.38;5044526;28;20419;-84
2022/01/13 05:55:36;;;;;;;1.50;1.40;;;;;;;-21.34;81.62;99147.16;5007384;28;20049;-84
2022/01/13 05:58:03;;;;;;;1.60;1.50;;;;;;;-21.32;81.49;99141.97;5044697;28;20506;-83
2022/01/13 06:00:30;;;;;;;1.67;1.58;;;;;;;-21.28;81.64;99144.41;5026191;28;20139;-85
2022/01/13 06:02:58;;;;;;;1.40;1.30;;;;;;;-21.36;81.52;99137.84;5050316;28;20041;-85
2022/01/13 06:05:26;;;;;;;1.58;1.48;;;;;;;-21.39;81.72;99125.13;5033816;28;20041;-83
2022/01/13 06:07:54;;;;;;;1.50;1.40;;;;;;;-21.44;81.64;99113.28;5030340;28;20049;-85
2022/01/13 06:10:22;;;;;;;1.40;1.30;;;;;;;-21.36;81.79;99131.00;5028231;28;20052;-86
2022/01/13 06:12:51;;;;;;;1.40;1.30;;;;;;;-21.24;81.81;99132.34;5051879;28;20136;-85
2022/01/13 06:15:21;;;;;;;1.40;1.30;;;;;;;-21.21;81.75;99145.09;5053520;28;20418;-84
2022/01/13 06:17:52;;;;;;;1.40;1.30;;;;;;;-21.19;81.79;99140.75;5043667;28;20054;-84
2022/01/13 06:20:21;;;;;;;1.40;1.30;;;;;;;-21.23;81.78;99123.78;5035555;28;20057;-86
2022/01/13 06:22:50;;;;;;;1.40;1.30;;;;;;;-21.30;81.70;99112.84;5012766;28;20049;-84
2022/01/13 06:25:18;;;;;;;1.50;1.40;;;;;;;-21.33;81.86;99112.13;5020357;28;20072;-83
2022/01/13 06:27:48;;;;;;;1.50;1.40;;;;;;;-21.41;81.95;99111.53;5045871;28;20069;-85
2022/01/13 06:30:35;;;;;;;1.50;1.40;;;;;;;-21.36;81.83;99114.78;5043349;28;20048;-83
2022/01/13 06:33:04;;;;;;;1.60;1.50;;;;;;;-21.40;81.80;99093.53;5030730;28;20713;-82
2022/01/13 06:35:31;;;;;;;1.50;1.40;;;;;;;-21.34;81.75;99079.66;5045363;28;20085;-82
2022/01/13 06:37:58;;;;;;;1.65;1.55;;;;;;;-21.24;81.99;99096.44;5038627;28;20049;-82
2022/01/13 06:40:27;;;;;;;1.73;1.63;;;;;;;-21.24;81.64;99093.88;5045205;28;20049;-85
2022/01/13 06:42:57;;;;;;;1.50;1.40;;;;;;;-21.26;81.50;99093.94;5046149;28;20049;-84
2022/01/13 06:45:27;;;;;;;1.70;1.60;;;;;;;-21.19;81.28;99075.81;5030456;28;20422;-84
2022/01/13 06:47:54;;;;;;;1.55;1.45;;;;;;;-21.18;81.33;99057.84;5061177;28;20079;-87
2022/01/13 06:50:24;;;;;;;1.50;1.40;;;;;;;-21.21;81.27;99060.50;5054152;28;20069;-86
2022/01/13 06:52:52;;;;;;;1.50;1.40;;;;;;;-21.21;81.15;99043.38;5046144;28;20153;-85
2022/01/13 06:55:19;;;;;;;1.50;1.40;;;;;;;-21.10;80.84;99019.97;5054150;28;20053;-87
2022/01/13 06:57:46;;;;;;;1.67;1.58;;;;;;;-20.83;80.87;99040.53;5055858;28;20113;-88
2022/01/13 07:00:14;;;;;;;1.60;1.50;;;;;;;-20.72;80.64;99045.31;5044807;28;20098;-86
2022/01/13 07:02:42;;;;;;;1.50;1.40;;;;;;;-20.69;79.85;99061.44;5052222;28;20045;-86
2022/01/13 07:05:16;;;;;;;1.50;1.40;;;;;;;-20.71;79.23;99070.09;5053989;28;20048;-87
2022/01/13 07:07:43;;;;;;;1.40;1.30;;;;;;;-20.68;79.07;99064.84;5003566;28;20052;-87
2022/01/13 07:10:12;;;;;;;1.70;1.60;;;;;;;-20.68;78.83;99045.19;5055085;28;20150;-86
2022/01/13 07:12:42;;;;;;;1.58;1.48;;;;;;;-20.65;78.57;99029.69;5011985;28;20098;-85
2022/01/13 07:15:12;;;;;;;1.50;1.40;;;;;;;-20.62;78.67;99010.78;5052701;28;20080;-87
2022/01/13 07:17:40;;;;;;;1.58;1.48;;;;;;;-20.66;78.36;98986.94;5023029;28;20049;-87
2022/01/13 07:20:10;;;;;;;1.67;1.58;;;;;;;-20.39;78.01;99002.28;5027377;28;20045;-88
2022/01/13 07:22:39;;;;;;;1.50;1.40;;;;;;;-20.18;77.52;99011.81;4666385;28;9999688;-85
2022/01/13 07:25:07;;;;;;;1.50;1.40;;;;;;;-20.00;77.03;99001.78;5029877;28;20072;-89
2022/01/13 07:27:39;;;;;;;1.60;1.50;;;;;;;-19.90;76.75;98987.72;5041406;28;20050;-83
2022/01/13 07:30:08;;;;;;;1.58;1.48;;;;;;;-19.80;75.84;98983.94;5048312;28;20049;-83
2022/01/13 07:32:37;;;;;;;1.63;1.52;;;;;;;-19.75;75.76;98984.59;5043271;28;20052;-88
2022/01/13 07:35:05;;;;;;;1.70;1.60;;;;;;;-19.73;74.98;98954.53;5002986;28;20041;-85
2022/01/13 07:37:39;;;;;;;1.70;1.60;;;;;;;-19.26;74.55;98949.31;5017534;28;20050;-85
2022/01/13 07:40:08;;;;;;;1.80;1.70;;;;;;;-18.92;72.77;98972.88;5043966;28;20050;-83
2022/01/13 07:42:41;;;;;;;1.98;1.88;;;;;;;-18.99;71.16;98964.53;5025030;28;20129;-83
2022/01/13 07:45:10;;;;;;;1.95;1.85;;;;;;;-18.78;70.65;98974.88;5039465;28;20049;-81
2022/01/13 07:48:02;;;;;;;1.75;1.65;;;;;;;-18.33;70.03;98960.97;5038831;28;20420;-87
2022/01/13 07:50:34;;;;;;;1.75;1.65;;;;;;;-18.08;69.38;98950.44;5050940;28;20056;-89
2022/01/13 07:53:02;;;;;;;1.60;1.50;;;;;;;-17.85;68.74;98949.44;5032282;28;20578;-85
2022/01/13 07:55:29;;;;;;;1.77;1.67;;;;;;;-18.15;67.93;98929.25;5023958;28;20054;-86
2022/01/13 07:58:03;;;;;;;1.83;1.73;;;;;;;-18.41;68.44;98931.22;5037353;23;20153;-86
2022/01/13 08:00:31;;;;;;;2.10;2.00;;;;;;;-18.01;69.08;98926.91;5055962;28;20378;-87
2022/01/13 08:03:01;;;;;;;1.85;1.75;;;;;;;-17.52;68.34;98911.78;5052696;28;20048;-90
2022/01/13 08:05:28;;;;;;;1.40;1.30;;;;;;;-18.08;67.24;98911.78;5036028;28;20053;-88
2022/01/13 08:07:57;;;;;;;1.60;1.50;;;;;;;-18.60;68.32;98902.84;5034865;28;20511;-87
2022/01/13 08:10:27;;;;;;;1.48;1.38;;;;;;;-18.85;69.04;98897.09;5030158;28;20049;-85
2022/01/13 08:12:54;;;;;;;1.50;1.40;;;;;;;-18.69;69.77;98894.69;5046467;28;20152;-86
2022/01/13 08:15:21;;;;;;;1.70;1.60;;;;;;;-18.18;69.78;98875.28;5037453;28;20495;-85
2022/01/13 08:20:35;;;;;;;1.80;1.70;;;;;;;-17.33;68.77;98855.00;5060416;28;20059;-88
2022/01/13 08:23:02;;;;;;;1.73;1.63;;;;;;;-16.68;67.39;98859.53;5020298;28;20053;-85
2022/01/13 08:25:32;;;;;;;1.80;1.70;;;;;;;-16.09;65.99;98847.03;5028378;28;20049;-85
2022/01/13 08:28:00;;;;;;;1.92;1.83;;;;;;;-15.61;64.65;98832.34;5011397;28;20110;-86
2022/01/13 08:30:38;;;;;;;2.03;1.92;;;;;;;-15.42;63.71;98804.50;5031673;28;20068;-89
2022/01/13 08:33:06;;;;;;;1.73;1.63;;;;;;;-15.36;62.41;98793.00;5010832;28;20072;-87
2022/01/13 08:35:33;;;;;;;1.70;1.60;;;;;;;-15.38;63.05;98797.41;5019137;28;20049;-86
2022/01/13 08:38:07;;;;;;;1.67;1.58;;;;;;;-15.50;62.08;98773.88;5027887;28;20084;-86
2022/01/13 08:40:35;;;;;;;1.60;1.50;;;;;;;-16.18;62.67;98765.63;5027604;28;20768;-88
2022/01/13 08:43:03;;;;;;;1.95;1.85;;;;;;;-16.57;63.16;98771.19;5027345;28;20176;-88
2022/01/13 08:45:30;;;;;;;1.80;1.70;;;;;;;-17.10;63.88;98760.97;5014006;28;20072;-86
2022/01/13 08:47:57;;;;;;;1.60;1.50;;;;;;;-17.30;65.00;98738.75;5027074;28;20054;-87
2022/01/13 08:50:25;;;;;;;1.50;1.40;;;;;;;-17.57;65.54;98729.78;5013329;28;20045;-85
2022/01/13 08:52:55;;;;;;;1.67;1.58;;;;;;;-17.62;66.49;98732.63;5012991;28;20503;-90
2022/01/13 08:55:33;;;;;;;1.50;1.40;;;;;;;-17.54;66.30;98724.50;5009087;28;20077;-85
2022/01/13 08:58:00;;;;;;;1.58;1.48;;;;;;;-17.28;66.98;98731.75;5009931;28;20515;-87
2022/01/13 09:00:28;;;;;;;1.73;1.63;;;;;;;-16.92;66.29;98717.88;4997685;28;20475;-86
2022/01/13 09:02:55;;;;;;;1.77;1.67;;;;;;;-16.77;65.49;98718.81;5005621;28;20073;-83
2022/01/13 09:05:33;;;;;;;1.40;1.30;;;;;;;-16.60;65.27;98708.44;5020814;28;20062;-84
2022/01/13 09:08:07;;;;;;;1.52;1.42;;;;;;;-16.58;65.08;98695.44;5026652;28;20056;-84
2022/01/13 09:10:35;;;;;;;1.50;1.40;;;;;;;-16.79;65.10;98681.09;4994082;28;20056;-84
2022/01/13 09:13:04;;;;;;;1.63;1.52;;;;;;;-16.69;65.86;98674.50;5000261;28;20746;-84
2022/01/13 09:15:37;;;;;;;1.50;1.40;;;;;;;-16.49;66.69;98653.59;5026854;28;20048;-85
2022/01/13 09:18:11;;;;;;;1.45;1.35;;;;;;;-16.47;66.39;98650.94;5018530;28;20084;-84
2022/01/13 09:20:39;;;;;;;1.40;1.30;;;;;;;-16.50;66.41;98630.44;5016271;28;20144;-86
2022/01/13 09:23:08;;;;;;;1.10;1.10;;;;;;;-16.64;66.46;98616.53;5014022;28;20442;-86
2022/01/13 09:25:36;;;;;;;1.58;1.48;;;;;;;-16.81;67.00;98616.63;5002823;28;20124;-84
2022/01/13 09:28:05;;;;;;;1.60;1.50;;;;;;;-16.64;67.51;98619.09;5024800;28;20144;-85
2022/01/13 09:30:33;;;;;;;1.45;1.35;;;;;;;-16.58;67.27;98617.97;5015957;28;20065;-83
2022/01/13 09:33:01;;;;;;;1.48;1.38;;;;;;;-16.57;67.37;98624.78;5039422;28;20045;-86
2022/01/13 09:35:28;;;;;;;1.60;1.50;;;;;;;-16.68;67.52;98634.84;5033209;28;20053;-86
2022/01/13 09:37:55;;;;;;;1.38;1.27;;;;;;;-16.62;68.20;98647.44;5024458;28;20081;-84
2022/01/13 09:40:23;;;;;;;1.30;1.20;;;;;;;-16.60;67.94;98630.94;4999466;28;20161;-84
2022/01/13 09:42:50;;;;;;;1.55;1.45;;;;;;;-16.53;68.38;98625.44;5022462;28;20455;-83
2022/01/13 09:45:17;;;;;;;1.70;1.60;;;;;;;-16.37;68.54;98610.75;5028643;28;20049;-84
2022/01/13 09:47:46;;;;;;;1.40;1.30;;;;;;;-16.33;68.14;98594.16;4988085;28;20046;-86
2022/01/13 09:50:24;;;;;;;1.48;1.38;;;;;;;-16.35;68.62;98592.56;5044989;28;20115;-84
2022/01/13 09:52:53;;;;;;;1.30;1.20;;;;;;;-16.20;69.06;98599.47;5017751;28;20187;-85
2022/01/13 09:55:21;;;;;;;1.38;1.27;;;;;;;-16.19;68.71;98573.53;5011603;28;20084;-83
2022/01/13 09:57:50;;;;;;;1.15;1.15;;;;;;;-16.00;69.03;98573.31;5027928;28;20057;-82
2022/01/13 10:00:24;;;;;;;1.30;1.20;;;;;;;-15.96;68.67;98554.13;5033775;28;20053;-89
2022/01/13 10:02:52;;;;;;;1.50;1.40;;;;;;;-15.88;68.54;98556.25;4997673;28;20050;-86
2022/01/13 10:05:22;;;;;;;1.45;1.35;;;;;;;-15.84;68.55;98557.75;5034341;28;20439;-89
2022/01/13 10:07:51;;;;;;;1.50;1.40;;;;;;;-15.81;68.29;98536.88;5039778;28;20049;-87
2022/01/13 10:10:27;;;;;;;1.35;1.25;;;;;;;-15.79;68.37;98535.03;5027115;28;20072;-84
2022/01/13 10:13:11;;;;;;;1.50;1.40;;;;;;;-15.72;68.45;98522.56;5012295;28;20049;-83
2022/01/13 10:18:46;;;;;;;1.30;1.23;;;;;;;-15.57;68.47;98492.31;4995959;28;20050;-89
2022/01/13 10:21:17;;;;;;;1.15;1.15;;;;;;;-15.58;68.32;98475.13;5019001;28;20073;-84
2022/01/13 10:24:01;;;;;;;1.27;1.20;;;;;;;-15.59;68.49;98463.97;5010370;28;20130;-84
2022/01/13 10:26:30;;;;;;;1.40;1.30;;;;;;;-15.55;68.22;98442.13;5002184;28;20049;-89
2022/01/13 10:28:58;;;;;;;1.48;1.38;;;;;;;-15.61;68.42;98426.19;5013739;28;20526;-88
2022/01/13 10:31:49;;;;;;;1.30;1.20;;;;;;;-15.54;68.14;98417.13;5045640;28;20049;-86
2022/01/13 10:34:22;;;;;;;1.20;1.20;;;;;;;-15.49;68.56;98407.31;5018649;28;20111;-87
2022/01/13 10:37:14;;;;;;;1.48;1.38;;;;;;;-15.47;68.51;98395.09;5032853;28;20077;-86
2022/01/13 10:39:50;;;;;;;1.42;1.33;;;;;;;-15.47;68.58;98389.91;5022220;28;20157;-86
2022/01/13 10:45:06;;;;;;;1.17;1.17;;;;;;;-15.51;68.39;98362.59;5017772;28;20076;-88
2022/01/13 10:47:34;;;;;;;1.40;1.30;;;;;;;-15.51;68.73;98357.41;4985790;28;20100;-86
2022/01/13 10:50:12;;;;;;;1.05;1.05;;;;;;;-15.38;68.75;98347.13;5033584;28;20491;-85
2022/01/13 10:52:41;;;;;;;1.40;1.30;;;;;;;-15.37;68.64;98328.88;5016300;28;20107;-84
2022/01/13 10:55:17;;;;;;;1.50;1.40;;;;;;;-15.25;68.88;98295.38;5014023;28;20046;-84
2022/01/13 10:58:05;;;;;;;1.50;1.40;;;;;;;-15.23;69.26;98303.88;5014249;28;20515;-84
2022/01/13 11:00:34;;;;;;;1.30;1.23;;;;;;;-15.18;68.76;98310.41;5037348;28;20644;-83
2022/01/13 11:03:07;;;;;;;1.40;1.30;;;;;;;-15.18;69.17;98312.19;5031643;28;20076;-84
2022/01/13 11:05:41;;;;;;;1.70;1.60;;;;;;;-15.15;69.12;98299.84;5012880;28;20099;-84
2022/01/13 11:08:09;;;;;;;1.55;1.45;;;;;;;-15.18;69.16;98261.22;5045679;28;20050;-85
2022/01/13 11:10:39;;;;;;;1.50;1.40;;;;;;;-15.13;69.48;98251.41;5031189;28;20049;-83
2022/01/13 11:13:16;;;;;;;1.50;1.40;;;;;;;-15.13;69.73;98240.22;5034948;28;20057;-88
2022/01/13 11:15:46;;;;;;;1.10;1.10;;;;;;;-15.03;70.25;98227.50;5030624;28;20053;-86
2022/01/13 11:18:13;;;;;;;1.70;1.60;;;;;;;-15.05;70.68;98211.22;5018225;28;20046;-85
2022/01/13 11:20:40;;;;;;;1.52;1.42;;;;;;;-14.98;71.12;98215.06;5013496;28;20049;-86
2022/01/13 11:23:08;;;;;;;1.00;1.00;;;;;;;-14.95;71.56;98200.13;5023290;28;20079;-89
2022/01/13 11:25:35;;;;;;;1.20;1.20;;;;;;;-14.90;71.92;98192.88;5041086;28;20076;-88
2022/01/13 11:28:02;;;;;;;1.23;1.20;;;;;;;-14.82;72.36;98183.78;5036789;28;20053;-88
2022/01/13 11:30:32;;;;;;;1.67;1.58;;;;;;;-14.86;72.92;98183.97;5041278;28;20121;-89
2022/01/13 11:32:59;;;;;;;1.38;1.27;;;;;;;-14.80;73.73;98172.38;5051798;28;20060;-88
2022/01/13 11:35:29;;;;;;;1.33;1.25;;;;;;;-14.78;74.23;98164.47;5028921;28;20084;-88
2022/01/13 11:38:05;;;;;;;1.55;1.45;;;;;;;-14.74;75.13;98138.25;5013325;28;20054;-85
2022/01/13 11:40:36;;;;;;;1.27;1.20;;;;;;;-14.76;75.90;98110.81;5050787;28;20061;-90
2022/01/13 11:43:24;;;;;;;1.33;1.25;;;;;;;-14.69;76.15;98080.94;5035765;28;20041;-88
2022/01/13 11:46:34;;;;;;;1.25;1.20;;;;;;;-14.67;76.88;98072.13;5018226;28;20076;-89
2022/01/13 11:49:09;;;;;;;1.20;1.20;;;;;;;-14.61;77.28;98063.09;5014129;28;20054;-88
2022/01/13 11:52:29;;;;;;;1.55;1.45;;;;;;;-14.49;77.66;98088.09;4966738;28;20064;-90
2022/01/13 11:54:44;;;;;;;1.35;1.25;;;;;;;-14.46;78.35;98081.88;5010262;28;20042;-89
2022/01/13 11:57:37;;;;;;;1.40;1.30;;;;;;;-14.45;78.77;98053.25;4991325;28;20060;-90
2022/01/13 12:00:21;;;;;;;1.42;1.33;;;;;;;-14.28;78.99;98059.81;5026477;28;20440;-86
2022/01/13 12:02:54;;;;;;;1.33;1.23;;;;;;;-14.27;79.37;98035.53;5009708;28;20048;-91
2022/01/13 12:05:52;;;;;;;1.33;1.23;;;;;;;-14.17;79.34;98002.00;5117220;23;20082;-92
2022/01/13 12:08:51;;;;;;;1.63;1.52;;;;;;;-14.11;79.47;98009.28;4977609;28;20070;-91
2022/01/13 12:11:46;;;;;;;1.25;1.20;;;;;;;-13.95;79.46;98036.69;4962734;28;20051;-90
2022/01/13 12:14:22;;;;;;;1.50;1.40;;;;;;;-13.89;79.38;98018.91;4944342;28;20164;-86
2022/01/13 12:16:53;;;;;;;1.70;1.60;;;;;;;-13.89;79.47;97989.53;4949516;28;20046;-87
2022/01/13 12:19:36;;;;;;;1.38;1.27;;;;;;;-13.80;79.36;97987.09;4929064;28;20609;-85